sensor_id;sensor_type;location;lat;lon;timestamp;temperature;humidity
21502;DHT22;27639;48.674;9.242;2022-11-22T00:02:19;10.00;59.80
21502;DHT22;27639;48.674;9.242;2022-11-22T00:04:44;10.00;59.70
21502;DHT22;27639;48.674;9.242;2022-11-22T00:07:10;10.00;59.70
21502;DHT22;27639;48.674;9.242;2022-11-22T00:09:35;10.00;59.80
21502;DHT22;27639;48.674;9.242;2022-11-22T00:12:01;10.00;59.80
21502;DHT22;27639;48.674;9.242;2022-11-22T00:14:26;10.00;59.80
21502;DHT22;27639;48.674;9.242;2022-11-22T00:16:53;10.00;59.80
21502;DHT22;27639;48.674;9.242;2022-11-22T00:19:18;10.00;59.80
21502;DHT22;27639;48.674;9.242;2022-11-22T00:21:44;10.00;59.80
21502;DHT22;27639;48.674;9.242;2022-11-22T00:24:13;10.10;60.00
21502;DHT22;27639;48.674;9.242;2022-11-22T00:26:38;10.00;60.00
21502;DHT22;27639;48.674;9.242;2022-11-22T00:29:04;10.00;60.10
21502;DHT22;27639;48.674;9.242;2022-11-22T00:31:30;10.00;60.00
21502;DHT22;27639;48.674;9.242;2022-11-22T00:33:55;10.10;60.20
21502;DHT22;27639;48.674;9.242;2022-11-22T00:36:22;10.10;60.10
21502;DHT22;27639;48.674;9.242;2022-11-22T00:38:47;10.10;60.70
21502;DHT22;27639;48.674;9.242;2022-11-22T00:41:13;10.10;59.90
21502;DHT22;27639;48.674;9.242;2022-11-22T00:43:39;10.20;60.00
21502;DHT22;27639;48.674;9.242;2022-11-22T00:46:04;10.20;60.00
21502;DHT22;27639;48.674;9.242;2022-11-22T00:48:30;10.10;59.90
21502;DHT22;27639;48.674;9.242;2022-11-22T00:50:55;10.20;60.20
21502;DHT22;27639;48.674;9.242;2022-11-22T00:53:21;10.10;60.10
21502;DHT22;27639;48.674;9.242;2022-11-22T00:55:47;10.20;60.20
21502;DHT22;27639;48.674;9.242;2022-11-22T00:58:13;10.20;60.40
21502;DHT22;27639;48.674;9.242;2022-11-22T01:00:39;10.20;60.40
21502;DHT22;27639;48.674;9.242;2022-11-22T01:03:04;10.10;60.30
21502;DHT22;27639;48.674;9.242;2022-11-22T01:05:30;10.10;60.40
21502;DHT22;27639;48.674;9.242;2022-11-22T01:07:56;10.20;60.70
21502;DHT22;27639;48.674;9.242;2022-11-22T01:10:21;10.20;60.80
21502;DHT22;27639;48.674;9.242;2022-11-22T01:12:47;10.20;60.80
21502;DHT22;27639;48.674;9.242;2022-11-22T01:15:12;10.20;60.90
21502;DHT22;27639;48.674;9.242;2022-11-22T01:17:38;10.20;60.90
21502;DHT22;27639;48.674;9.242;2022-11-22T01:20:04;10.20;61.00
21502;DHT22;27639;48.674;9.242;2022-11-22T01:22:30;10.20;61.10
21502;DHT22;27639;48.674;9.242;2022-11-22T01:24:56;10.20;61.20
21502;DHT22;27639;48.674;9.242;2022-11-22T01:27:21;10.20;61.10
21502;DHT22;27639;48.674;9.242;2022-11-22T01:29:47;10.20;61.30
21502;DHT22;27639;48.674;9.242;2022-11-22T01:32:12;10.10;61.20
21502;DHT22;27639;48.674;9.242;2022-11-22T01:34:38;10.10;61.30
21502;DHT22;27639;48.674;9.242;2022-11-22T01:37:04;10.10;61.30
21502;DHT22;27639;48.674;9.242;2022-11-22T01:39:29;10.20;61.40
21502;DHT22;27639;48.674;9.242;2022-11-22T01:41:55;10.20;61.40
21502;DHT22;27639;48.674;9.242;2022-11-22T01:44:25;10.20;61.20
21502;DHT22;27639;48.674;9.242;2022-11-22T01:49:24;10.30;61.30
21502;DHT22;27639;48.674;9.242;2022-11-22T01:51:53;10.30;61.30
21502;DHT22;27639;48.674;9.242;2022-11-22T01:54:23;10.30;61.30
21502;DHT22;27639;48.674;9.242;2022-11-22T01:56:54;10.30;61.30
21502;DHT22;27639;48.674;9.242;2022-11-22T01:59:23;10.30;61.40
21502;DHT22;27639;48.674;9.242;2022-11-22T02:01:50;10.30;61.50
21502;DHT22;27639;48.674;9.242;2022-11-22T02:04:16;10.30;61.50
21502;DHT22;27639;48.674;9.242;2022-11-22T02:06:56;10.30;61.50
21502;DHT22;27639;48.674;9.242;2022-11-22T02:09:22;10.30;61.50
21502;DHT22;27639;48.674;9.242;2022-11-22T02:11:49;10.30;61.50
21502;DHT22;27639;48.674;9.242;2022-11-22T02:14:19;10.40;61.60
21502;DHT22;27639;48.674;9.242;2022-11-22T02:16:46;10.40;61.60
21502;DHT22;27639;48.674;9.242;2022-11-22T02:19:17;10.40;61.60
21502;DHT22;27639;48.674;9.242;2022-11-22T02:21:48;10.50;61.70
21502;DHT22;27639;48.674;9.242;2022-11-22T02:24:26;10.40;61.60
21502;DHT22;27639;48.674;9.242;2022-11-22T02:26:52;10.40;61.60
21502;DHT22;27639;48.674;9.242;2022-11-22T02:29:18;10.40;61.60
21502;DHT22;27639;48.674;9.242;2022-11-22T02:31:45;10.50;61.80
21502;DHT22;27639;48.674;9.242;2022-11-22T02:34:12;10.50;61.80
21502;DHT22;27639;48.674;9.242;2022-11-22T02:36:46;10.40;61.70
21502;DHT22;27639;48.674;9.242;2022-11-22T02:39:16;10.40;61.90
21502;DHT22;27639;48.674;9.242;2022-11-22T02:41:43;10.40;62.10
21502;DHT22;27639;48.674;9.242;2022-11-22T02:44:09;10.40;62.10
21502;DHT22;27639;48.674;9.242;2022-11-22T02:46:48;10.40;62.30
21502;DHT22;27639;48.674;9.242;2022-11-22T02:49:19;10.40;62.10
21502;DHT22;27639;48.674;9.242;2022-11-22T02:51:45;10.40;62.30
21502;DHT22;27639;48.674;9.242;2022-11-22T02:54:11;10.30;62.40
21502;DHT22;27639;48.674;9.242;2022-11-22T02:56:37;10.30;62.50
21502;DHT22;27639;48.674;9.242;2022-11-22T02:59:02;10.30;62.40
21502;DHT22;27639;48.674;9.242;2022-11-22T03:01:28;10.40;62.30
21502;DHT22;27639;48.674;9.242;2022-11-22T03:03:54;10.50;62.20
21502;DHT22;27639;48.674;9.242;2022-11-22T03:06:19;10.50;62.00
21502;DHT22;27639;48.674;9.242;2022-11-22T03:08:45;10.50;61.90
21502;DHT22;27639;48.674;9.242;2022-11-22T03:11:13;10.50;61.80
21502;DHT22;27639;48.674;9.242;2022-11-22T03:13:39;10.50;61.80
21502;DHT22;27639;48.674;9.242;2022-11-22T03:16:05;10.50;61.70
21502;DHT22;27639;48.674;9.242;2022-11-22T03:18:34;10.50;61.50
21502;DHT22;27639;48.674;9.242;2022-11-22T03:21:02;10.50;61.50
21502;DHT22;27639;48.674;9.242;2022-11-22T03:23:28;10.50;61.50
21502;DHT22;27639;48.674;9.242;2022-11-22T03:25:54;10.50;61.60
21502;DHT22;27639;48.674;9.242;2022-11-22T03:28:19;10.50;61.60
21502;DHT22;27639;48.674;9.242;2022-11-22T03:30:45;10.50;61.50
21502;DHT22;27639;48.674;9.242;2022-11-22T03:33:10;10.50;61.50
21502;DHT22;27639;48.674;9.242;2022-11-22T03:35:36;10.50;61.30
21502;DHT22;27639;48.674;9.242;2022-11-22T03:38:02;10.50;61.30
21502;DHT22;27639;48.674;9.242;2022-11-22T03:40:28;10.60;61.40
21502;DHT22;27639;48.674;9.242;2022-11-22T03:42:54;10.50;61.30
21502;DHT22;27639;48.674;9.242;2022-11-22T03:45:22;10.50;61.40
21502;DHT22;27639;48.674;9.242;2022-11-22T03:47:47;10.50;61.50
21502;DHT22;27639;48.674;9.242;2022-11-22T03:50:13;10.50;61.50
21502;DHT22;27639;48.674;9.242;2022-11-22T03:52:39;10.50;61.40
21502;DHT22;27639;48.674;9.242;2022-11-22T03:55:04;10.40;61.40
21502;DHT22;27639;48.674;9.242;2022-11-22T03:57:30;10.40;61.50
21502;DHT22;27639;48.674;9.242;2022-11-22T03:59:55;10.40;61.60
21502;DHT22;27639;48.674;9.242;2022-11-22T04:02:21;10.30;61.60
21502;DHT22;27639;48.674;9.242;2022-11-22T04:04:47;10.30;61.50
21502;DHT22;27639;48.674;9.242;2022-11-22T04:07:12;10.40;61.60
21502;DHT22;27639;48.674;9.242;2022-11-22T04:09:38;10.40;61.70
21502;DHT22;27639;48.674;9.242;2022-11-22T04:12:03;10.30;61.50
21502;DHT22;27639;48.674;9.242;2022-11-22T04:14:29;10.40;61.60
21502;DHT22;27639;48.674;9.242;2022-11-22T04:17:13;10.40;61.40
21502;DHT22;27639;48.674;9.242;2022-11-22T04:19:59;10.40;61.40
21502;DHT22;27639;48.674;9.242;2022-11-22T04:22:54;10.40;61.30
21502;DHT22;27639;48.674;9.242;2022-11-22T04:25:20;10.40;61.10
21502;DHT22;27639;48.674;9.242;2022-11-22T04:27:45;10.40;61.00
21502;DHT22;27639;48.674;9.242;2022-11-22T04:30:11;10.40;60.90
21502;DHT22;27639;48.674;9.242;2022-11-22T04:32:37;10.40;60.80
21502;DHT22;27639;48.674;9.242;2022-11-22T04:35:15;10.40;60.80
21502;DHT22;27639;48.674;9.242;2022-11-22T04:37:49;10.40;60.80
21502;DHT22;27639;48.674;9.242;2022-11-22T04:40:15;10.30;60.70
21502;DHT22;27639;48.674;9.242;2022-11-22T04:42:40;10.20;60.70
21502;DHT22;27639;48.674;9.242;2022-11-22T04:45:25;10.10;60.80
21502;DHT22;27639;48.674;9.242;2022-11-22T04:47:52;10.10;60.90
21502;DHT22;27639;48.674;9.242;2022-11-22T04:50:24;10.00;60.80
21502;DHT22;27639;48.674;9.242;2022-11-22T04:53:08;10.00;60.70
21502;DHT22;27639;48.674;9.242;2022-11-22T04:55:34;10.00;60.70
21502;DHT22;27639;48.674;9.242;2022-11-22T04:58:00;9.90;61.80
21502;DHT22;27639;48.674;9.242;2022-11-22T05:00:29;9.80;61.80
21502;DHT22;27639;48.674;9.242;2022-11-22T05:02:55;9.80;61.80
21502;DHT22;27639;48.674;9.242;2022-11-22T05:05:22;9.80;62.00
21502;DHT22;27639;48.674;9.242;2022-11-22T05:07:48;9.70;61.90
21502;DHT22;27639;48.674;9.242;2022-11-22T05:10:14;9.70;61.90
21502;DHT22;27639;48.674;9.242;2022-11-22T05:12:40;9.60;62.80
21502;DHT22;27639;48.674;9.242;2022-11-22T05:15:06;9.50;61.90
21502;DHT22;27639;48.674;9.242;2022-11-22T05:17:32;9.50;62.00
21502;DHT22;27639;48.674;9.242;2022-11-22T05:19:57;9.60;62.00
21502;DHT22;27639;48.674;9.242;2022-11-22T05:22:26;9.60;62.00
21502;DHT22;27639;48.674;9.242;2022-11-22T05:25:10;9.60;62.00
21502;DHT22;27639;48.674;9.242;2022-11-22T05:27:36;9.50;61.90
21502;DHT22;27639;48.674;9.242;2022-11-22T05:30:03;9.40;62.10
21502;DHT22;27639;48.674;9.242;2022-11-22T05:32:29;9.40;62.20
21502;DHT22;27639;48.674;9.242;2022-11-22T05:34:56;9.30;62.20
21502;DHT22;27639;48.674;9.242;2022-11-22T05:37:21;9.30;62.40
21502;DHT22;27639;48.674;9.242;2022-11-22T05:39:47;9.20;62.30
21502;DHT22;27639;48.674;9.242;2022-11-22T05:42:13;9.20;62.40
21502;DHT22;27639;48.674;9.242;2022-11-22T05:44:38;9.10;62.50
21502;DHT22;27639;48.674;9.242;2022-11-22T05:47:04;9.10;62.60
21502;DHT22;27639;48.674;9.242;2022-11-22T05:49:30;9.10;62.70
21502;DHT22;27639;48.674;9.242;2022-11-22T05:51:56;9.10;62.80
21502;DHT22;27639;48.674;9.242;2022-11-22T05:54:21;9.10;62.80
21502;DHT22;27639;48.674;9.242;2022-11-22T05:56:47;9.10;63.00
21502;DHT22;27639;48.674;9.242;2022-11-22T05:59:13;9.10;63.10
21502;DHT22;27639;48.674;9.242;2022-11-22T06:01:38;9.10;63.10
21502;DHT22;27639;48.674;9.242;2022-11-22T06:04:04;9.10;63.30
21502;DHT22;27639;48.674;9.242;2022-11-22T06:06:30;9.10;63.30
21502;DHT22;27639;48.674;9.242;2022-11-22T06:08:57;9.10;63.30
21502;DHT22;27639;48.674;9.242;2022-11-22T06:11:24;9.10;63.30
21502;DHT22;27639;48.674;9.242;2022-11-22T06:13:54;9.20;63.30
21502;DHT22;27639;48.674;9.242;2022-11-22T06:16:20;9.20;63.30
21502;DHT22;27639;48.674;9.242;2022-11-22T06:18:47;9.20;63.30
21502;DHT22;27639;48.674;9.242;2022-11-22T06:21:18;9.20;63.20
21502;DHT22;27639;48.674;9.242;2022-11-22T06:23:44;9.10;63.10
21502;DHT22;27639;48.674;9.242;2022-11-22T06:26:12;9.10;63.20
21502;DHT22;27639;48.674;9.242;2022-11-22T06:28:39;9.20;64.00
21502;DHT22;27639;48.674;9.242;2022-11-22T06:31:10;9.20;63.10
21502;DHT22;27639;48.674;9.242;2022-11-22T06:33:35;9.20;63.10
21502;DHT22;27639;48.674;9.242;2022-11-22T06:36:09;9.20;63.10
21502;DHT22;27639;48.674;9.242;2022-11-22T06:38:35;9.20;63.10
21502;DHT22;27639;48.674;9.242;2022-11-22T06:41:04;9.30;63.20
21502;DHT22;27639;48.674;9.242;2022-11-22T06:43:30;9.30;63.20
21502;DHT22;27639;48.674;9.242;2022-11-22T06:45:57;9.30;63.20
21502;DHT22;27639;48.674;9.242;2022-11-22T06:48:24;9.30;63.10
21502;DHT22;27639;48.674;9.242;2022-11-22T06:50:50;9.40;63.10
21502;DHT22;27639;48.674;9.242;2022-11-22T06:53:15;9.40;63.10
21502;DHT22;27639;48.674;9.242;2022-11-22T06:55:41;9.40;63.00
21502;DHT22;27639;48.674;9.242;2022-11-22T06:58:06;9.40;63.00
21502;DHT22;27639;48.674;9.242;2022-11-22T07:00:33;9.40;62.90
21502;DHT22;27639;48.674;9.242;2022-11-22T07:02:58;9.40;62.90
21502;DHT22;27639;48.674;9.242;2022-11-22T07:05:24;9.50;63.00
21502;DHT22;27639;48.674;9.242;2022-11-22T07:07:49;9.50;62.90
21502;DHT22;27639;48.674;9.242;2022-11-22T07:10:15;9.50;63.00
21502;DHT22;27639;48.674;9.242;2022-11-22T07:12:40;9.50;63.00
21502;DHT22;27639;48.674;9.242;2022-11-22T07:15:06;9.50;63.00
21502;DHT22;27639;48.674;9.242;2022-11-22T07:17:32;9.40;63.00
21502;DHT22;27639;48.674;9.242;2022-11-22T07:19:57;9.50;63.10
21502;DHT22;27639;48.674;9.242;2022-11-22T07:22:23;9.50;63.20
21502;DHT22;27639;48.674;9.242;2022-11-22T07:24:48;9.50;63.20
21502;DHT22;27639;48.674;9.242;2022-11-22T07:27:14;9.50;63.10
21502;DHT22;27639;48.674;9.242;2022-11-22T07:29:40;9.60;63.20
21502;DHT22;27639;48.674;9.242;2022-11-22T07:32:05;9.60;63.20
21502;DHT22;27639;48.674;9.242;2022-11-22T07:34:31;9.70;63.30
21502;DHT22;27639;48.674;9.242;2022-11-22T07:36:57;9.70;63.30
21502;DHT22;27639;48.674;9.242;2022-11-22T07:39:22;9.70;63.30
21502;DHT22;27639;48.674;9.242;2022-11-22T07:41:48;9.70;63.30
21502;DHT22;27639;48.674;9.242;2022-11-22T07:44:13;9.70;64.00
21502;DHT22;27639;48.674;9.242;2022-11-22T07:46:39;9.80;63.40
21502;DHT22;27639;48.674;9.242;2022-11-22T07:49:04;9.80;63.40
21502;DHT22;27639;48.674;9.242;2022-11-22T07:51:30;9.80;63.40
21502;DHT22;27639;48.674;9.242;2022-11-22T07:53:56;9.90;63.50
21502;DHT22;27639;48.674;9.242;2022-11-22T07:56:22;9.90;63.30
21502;DHT22;27639;48.674;9.242;2022-11-22T07:58:48;9.90;63.20
21502;DHT22;27639;48.674;9.242;2022-11-22T08:01:15;10.00;62.10
21502;DHT22;27639;48.674;9.242;2022-11-22T08:03:42;10.00;62.10
21502;DHT22;27639;48.674;9.242;2022-11-22T08:06:10;10.00;62.10
21502;DHT22;27639;48.674;9.242;2022-11-22T08:08:36;10.00;62.10
21502;DHT22;27639;48.674;9.242;2022-11-22T08:11:03;10.00;62.10
21502;DHT22;27639;48.674;9.242;2022-11-22T08:13:29;10.10;62.10
21502;DHT22;27639;48.674;9.242;2022-11-22T08:16:01;10.10;62.00
21502;DHT22;27639;48.674;9.242;2022-11-22T08:18:26;10.20;62.10
21502;DHT22;27639;48.674;9.242;2022-11-22T08:21:01;10.20;62.00
21502;DHT22;27639;48.674;9.242;2022-11-22T08:23:27;10.20;61.90
21502;DHT22;27639;48.674;9.242;2022-11-22T08:25:53;10.30;62.00
21502;DHT22;27639;48.674;9.242;2022-11-22T08:28:18;10.30;62.00
21502;DHT22;27639;48.674;9.242;2022-11-22T08:30:44;10.30;62.00
21502;DHT22;27639;48.674;9.242;2022-11-22T08:33:09;10.40;62.10
21502;DHT22;27639;48.674;9.242;2022-11-22T08:35:35;10.40;61.90
21502;DHT22;27639;48.674;9.242;2022-11-22T08:38:00;10.50;61.90
21502;DHT22;27639;48.674;9.242;2022-11-22T08:40:26;10.50;61.80
21502;DHT22;27639;48.674;9.242;2022-11-22T08:42:55;10.60;61.90
21502;DHT22;27639;48.674;9.242;2022-11-22T08:45:21;10.60;61.90
21502;DHT22;27639;48.674;9.242;2022-11-22T08:47:46;10.70;62.00
21502;DHT22;27639;48.674;9.242;2022-11-22T08:50:13;10.70;62.00
21502;DHT22;27639;48.674;9.242;2022-11-22T08:52:39;10.70;62.00
21502;DHT22;27639;48.674;9.242;2022-11-22T08:55:05;10.80;61.90
21502;DHT22;27639;48.674;9.242;2022-11-22T08:57:31;10.80;61.90
21502;DHT22;27639;48.674;9.242;2022-11-22T08:59:56;10.80;61.90
21502;DHT22;27639;48.674;9.242;2022-11-22T09:02:22;10.80;61.90
21502;DHT22;27639;48.674;9.242;2022-11-22T09:04:47;10.90;62.00
21502;DHT22;27639;48.674;9.242;2022-11-22T09:07:13;10.90;62.00
21502;DHT22;27639;48.674;9.242;2022-11-22T09:09:38;10.90;62.00
21502;DHT22;27639;48.674;9.242;2022-11-22T09:12:04;11.00;61.90
21502;DHT22;27639;48.674;9.242;2022-11-22T09:14:30;11.00;61.70
21502;DHT22;27639;48.674;9.242;2022-11-22T09:16:55;10.90;61.30
21502;DHT22;27639;48.674;9.242;2022-11-22T09:19:21;10.90;61.30
21502;DHT22;27639;48.674;9.242;2022-11-22T09:21:46;10.90;60.90
21502;DHT22;27639;48.674;9.242;2022-11-22T09:24:12;10.90;60.80
21502;DHT22;27639;48.674;9.242;2022-11-22T09:26:38;11.00;60.80
21502;DHT22;27639;48.674;9.242;2022-11-22T09:29:03;11.00;60.70
21502;DHT22;27639;48.674;9.242;2022-11-22T09:31:30;11.00;60.50
21502;DHT22;27639;48.674;9.242;2022-11-22T09:33:56;11.10;60.60
21502;DHT22;27639;48.674;9.242;2022-11-22T09:36:23;11.10;60.30
21502;DHT22;27639;48.674;9.242;2022-11-22T09:38:51;11.00;60.10
21502;DHT22;27639;48.674;9.242;2022-11-22T09:46:53;11.00;60.00
21502;DHT22;27639;48.674;9.242;2022-11-22T09:49:45;11.00;60.00
21502;DHT22;27639;48.674;9.242;2022-11-22T09:55:44;11.00;59.80
21502;DHT22;27639;48.674;9.242;2022-11-22T10:00:57;10.90;60.10
21502;DHT22;27639;48.674;9.242;2022-11-22T10:03:42;10.90;59.70
21502;DHT22;27639;48.674;9.242;2022-11-22T10:06:26;11.00;59.60
21502;DHT22;27639;48.674;9.242;2022-11-22T10:12:36;11.00;59.20
21502;DHT22;27639;48.674;9.242;2022-11-22T10:20:22;11.10;59.20
21502;DHT22;27639;48.674;9.242;2022-11-22T10:22:48;11.10;58.80
21502;DHT22;27639;48.674;9.242;2022-11-22T10:25:21;11.00;58.90
21502;DHT22;27639;48.674;9.242;2022-11-22T10:28:05;11.00;58.90
21502;DHT22;27639;48.674;9.242;2022-11-22T10:30:38;11.00;58.50
21502;DHT22;27639;48.674;9.242;2022-11-22T10:33:25;11.00;58.80
21502;DHT22;27639;48.674;9.242;2022-11-22T10:36:24;11.00;58.70
21502;DHT22;27639;48.674;9.242;2022-11-22T10:44:31;11.10;58.40
21502;DHT22;27639;48.674;9.242;2022-11-22T10:50:04;11.10;58.00
21502;DHT22;27639;48.674;9.242;2022-11-22T10:53:16;11.00;57.90
21502;DHT22;27639;48.674;9.242;2022-11-22T10:58:30;11.00;57.60
21502;DHT22;27639;48.674;9.242;2022-11-22T11:01:09;11.00;57.40
21502;DHT22;27639;48.674;9.242;2022-11-22T11:03:42;11.10;57.50
21502;DHT22;27639;48.674;9.242;2022-11-22T11:06:19;11.00;57.20
21502;DHT22;27639;48.674;9.242;2022-11-22T11:08:58;11.00;57.20
21502;DHT22;27639;48.674;9.242;2022-11-22T11:11:26;11.00;56.90
21502;DHT22;27639;48.674;9.242;2022-11-22T11:13:58;11.10;57.10
21502;DHT22;27639;48.674;9.242;2022-11-22T11:16:31;11.10;56.90
21502;DHT22;27639;48.674;9.242;2022-11-22T11:21:35;11.10;56.60
21502;DHT22;27639;48.674;9.242;2022-11-22T11:24:01;11.20;56.70
21502;DHT22;27639;48.674;9.242;2022-11-22T11:26:30;11.20;56.70
21502;DHT22;27639;48.674;9.242;2022-11-22T11:31:46;11.20;55.60
21502;DHT22;27639;48.674;9.242;2022-11-22T11:34:23;11.20;56.00
21502;DHT22;27639;48.674;9.242;2022-11-22T11:36:52;11.20;55.80
21502;DHT22;27639;48.674;9.242;2022-11-22T11:39:19;11.30;55.90
21502;DHT22;27639;48.674;9.242;2022-11-22T11:41:45;11.40;55.90
21502;DHT22;27639;48.674;9.242;2022-11-22T11:44:29;11.40;55.60
21502;DHT22;27639;48.674;9.242;2022-11-22T11:46:57;11.40;55.60
21502;DHT22;27639;48.674;9.242;2022-11-22T11:49:28;11.50;55.40
21502;DHT22;27639;48.674;9.242;2022-11-22T11:51:57;11.50;55.10
21502;DHT22;27639;48.674;9.242;2022-11-22T11:54:39;11.60;55.10
21502;DHT22;27639;48.674;9.242;2022-11-22T11:57:10;11.60;54.60
21502;DHT22;27639;48.674;9.242;2022-11-22T12:02:16;11.60;54.80
21502;DHT22;27639;48.674;9.242;2022-11-22T12:05:03;11.70;54.80
21502;DHT22;27639;48.674;9.242;2022-11-22T12:09:58;11.90;54.90
21502;DHT22;27639;48.674;9.242;2022-11-22T12:14:57;11.90;54.60
21502;DHT22;27639;48.674;9.242;2022-11-22T12:17:27;12.00;54.50
21502;DHT22;27639;48.674;9.242;2022-11-22T12:20:10;12.00;54.30
21502;DHT22;27639;48.674;9.242;2022-11-22T12:23:11;12.00;54.30
21502;DHT22;27639;48.674;9.242;2022-11-22T12:25:41;12.10;54.30
21502;DHT22;27639;48.674;9.242;2022-11-22T12:28:23;12.20;54.40
21502;DHT22;27639;48.674;9.242;2022-11-22T12:31:11;12.20;53.80
21502;DHT22;27639;48.674;9.242;2022-11-22T12:33:46;12.30;54.10
21502;DHT22;27639;48.674;9.242;2022-11-22T12:36:20;12.30;53.90
21502;DHT22;27639;48.674;9.242;2022-11-22T12:38:49;12.20;53.40
21502;DHT22;27639;48.674;9.242;2022-11-22T12:41:17;12.30;54.10
21502;DHT22;27639;48.674;9.242;2022-11-22T12:43:49;12.30;53.20
21502;DHT22;27639;48.674;9.242;2022-11-22T12:46:19;12.30;52.90
21502;DHT22;27639;48.674;9.242;2022-11-22T12:48:51;12.30;52.70
21502;DHT22;27639;48.674;9.242;2022-11-22T12:51:23;12.30;52.70
21502;DHT22;27639;48.674;9.242;2022-11-22T12:53:52;12.40;52.20
21502;DHT22;27639;48.674;9.242;2022-11-22T12:56:26;12.40;52.10
21502;DHT22;27639;48.674;9.242;2022-11-22T13:02:35;12.30;52.10
21502;DHT22;27639;48.674;9.242;2022-11-22T13:07:44;12.10;51.90
21502;DHT22;27639;48.674;9.242;2022-11-22T13:12:56;12.10;51.90
21502;DHT22;27639;48.674;9.242;2022-11-22T13:15:29;12.20;52.00
21502;DHT22;27639;48.674;9.242;2022-11-22T13:17:55;12.20;51.90
21502;DHT22;27639;48.674;9.242;2022-11-22T13:20:53;12.10;51.90
21502;DHT22;27639;48.674;9.242;2022-11-22T13:29:24;11.90;51.50
21502;DHT22;27639;48.674;9.242;2022-11-22T13:34:29;11.90;51.70
21502;DHT22;27639;48.674;9.242;2022-11-22T13:37:12;11.80;51.40
21502;DHT22;27639;48.674;9.242;2022-11-22T13:39:45;11.80;51.30
21502;DHT22;27639;48.674;9.242;2022-11-22T13:42:17;11.70;51.20
21502;DHT22;27639;48.674;9.242;2022-11-22T13:44:52;11.70;51.80
21502;DHT22;27639;48.674;9.242;2022-11-22T13:47:42;11.70;51.30
21502;DHT22;27639;48.674;9.242;2022-11-22T13:53:24;11.70;50.60
21502;DHT22;27639;48.674;9.242;2022-11-22T13:55:51;11.60;50.90
21502;DHT22;27639;48.674;9.242;2022-11-22T14:00:48;11.60;51.00
21502;DHT22;27639;48.674;9.242;2022-11-22T14:05:50;11.70;51.00
21502;DHT22;27639;48.674;9.242;2022-11-22T14:08:35;11.70;51.00
21502;DHT22;27639;48.674;9.242;2022-11-22T14:16:28;11.70;50.80
21502;DHT22;27639;48.674;9.242;2022-11-22T14:35:16;11.80;50.90
21502;DHT22;27639;48.674;9.242;2022-11-22T14:37:55;11.80;50.70
21502;DHT22;27639;48.674;9.242;2022-11-22T14:40:42;11.80;50.90
21502;DHT22;27639;48.674;9.242;2022-11-22T14:45:43;11.70;50.90
21502;DHT22;27639;48.674;9.242;2022-11-22T14:48:16;11.70;50.70
21502;DHT22;27639;48.674;9.242;2022-11-22T14:51:06;11.70;51.00
21502;DHT22;27639;48.674;9.242;2022-11-22T14:53:41;11.60;50.80
21502;DHT22;27639;48.674;9.242;2022-11-22T15:09:43;11.60;51.20
21502;DHT22;27639;48.674;9.242;2022-11-22T15:12:33;11.60;51.30
21502;DHT22;27639;48.674;9.242;2022-11-22T15:17:35;11.60;51.30
21502;DHT22;27639;48.674;9.242;2022-11-22T15:20:30;11.50;51.30
21502;DHT22;27639;48.674;9.242;2022-11-22T15:23:04;11.50;51.20
21502;DHT22;27639;48.674;9.242;2022-11-22T15:25:30;11.40;51.30
21502;DHT22;27639;48.674;9.242;2022-11-22T15:27:55;11.40;51.40
21502;DHT22;27639;48.674;9.242;2022-11-22T15:30:23;11.40;51.30
21502;DHT22;27639;48.674;9.242;2022-11-22T15:32:53;11.40;51.40
21502;DHT22;27639;48.674;9.242;2022-11-22T15:35:24;11.40;51.30
21502;DHT22;27639;48.674;9.242;2022-11-22T15:38:08;11.40;51.30
21502;DHT22;27639;48.674;9.242;2022-11-22T15:40:37;11.30;51.20
21502;DHT22;27639;48.674;9.242;2022-11-22T15:43:04;11.30;51.80
21502;DHT22;27639;48.674;9.242;2022-11-22T15:45:33;11.30;51.80
21502;DHT22;27639;48.674;9.242;2022-11-22T15:48:06;11.30;51.70
21502;DHT22;27639;48.674;9.242;2022-11-22T15:50:33;11.30;51.40
21502;DHT22;27639;48.674;9.242;2022-11-22T15:55:52;11.30;51.60
21502;DHT22;27639;48.674;9.242;2022-11-22T15:58:18;11.20;51.90
21502;DHT22;27639;48.674;9.242;2022-11-22T16:00:43;11.20;52.20
21502;DHT22;27639;48.674;9.242;2022-11-22T16:03:20;11.20;52.20
21502;DHT22;27639;48.674;9.242;2022-11-22T16:05:47;11.30;52.20
21502;DHT22;27639;48.674;9.242;2022-11-22T16:08:13;11.30;52.10
21502;DHT22;27639;48.674;9.242;2022-11-22T16:10:40;11.30;52.10
21502;DHT22;27639;48.674;9.242;2022-11-22T16:13:33;11.40;52.10
21502;DHT22;27639;48.674;9.242;2022-11-22T16:18:34;11.30;52.10
21502;DHT22;27639;48.674;9.242;2022-11-22T16:21:14;11.30;52.20
21502;DHT22;27639;48.674;9.242;2022-11-22T16:23:44;11.30;52.20
21502;DHT22;27639;48.674;9.242;2022-11-22T16:26:27;11.30;52.30
21502;DHT22;27639;48.674;9.242;2022-11-22T16:28:55;11.20;52.20
21502;DHT22;27639;48.674;9.242;2022-11-22T16:31:39;11.20;52.40
21502;DHT22;27639;48.674;9.242;2022-11-22T16:34:11;11.10;52.30
21502;DHT22;27639;48.674;9.242;2022-11-22T16:36:38;11.10;52.50
21502;DHT22;27639;48.674;9.242;2022-11-22T16:39:03;11.10;52.50
21502;DHT22;27639;48.674;9.242;2022-11-22T16:41:29;11.10;52.50
21502;DHT22;27639;48.674;9.242;2022-11-22T16:43:59;11.10;52.40
21502;DHT22;27639;48.674;9.242;2022-11-22T16:46:26;11.10;52.50
21502;DHT22;27639;48.674;9.242;2022-11-22T16:48:51;11.10;52.50
21502;DHT22;27639;48.674;9.242;2022-11-22T16:53:48;11.00;53.30
21502;DHT22;27639;48.674;9.242;2022-11-22T16:56:19;11.00;52.80
21502;DHT22;27639;48.674;9.242;2022-11-22T16:58:46;11.00;52.80
21502;DHT22;27639;48.674;9.242;2022-11-22T17:01:18;11.00;52.80
21502;DHT22;27639;48.674;9.242;2022-11-22T17:03:46;11.00;52.90
21502;DHT22;27639;48.674;9.242;2022-11-22T17:06:14;10.90;53.00
21502;DHT22;27639;48.674;9.242;2022-11-22T17:08:40;10.90;53.10
21502;DHT22;27639;48.674;9.242;2022-11-22T17:11:08;10.90;53.30
21502;DHT22;27639;48.674;9.242;2022-11-22T17:13:34;10.90;53.40
21502;DHT22;27639;48.674;9.242;2022-11-22T17:16:00;10.80;53.30
21502;DHT22;27639;48.674;9.242;2022-11-22T17:18:25;10.90;53.50
21502;DHT22;27639;48.674;9.242;2022-11-22T17:20:51;10.80;53.50
21502;DHT22;27639;48.674;9.242;2022-11-22T17:23:29;10.90;53.60
21502;DHT22;27639;48.674;9.242;2022-11-22T17:25:56;10.80;53.60
21502;DHT22;27639;48.674;9.242;2022-11-22T17:28:22;10.80;53.90
21502;DHT22;27639;48.674;9.242;2022-11-22T17:30:47;10.80;53.90
21502;DHT22;27639;48.674;9.242;2022-11-22T17:33:13;10.80;53.90
21502;DHT22;27639;48.674;9.242;2022-11-22T17:35:39;10.80;53.90
21502;DHT22;27639;48.674;9.242;2022-11-22T17:38:05;10.80;54.00
21502;DHT22;27639;48.674;9.242;2022-11-22T17:40:32;10.80;53.90
21502;DHT22;27639;48.674;9.242;2022-11-22T17:42:57;10.90;54.00
21502;DHT22;27639;48.674;9.242;2022-11-22T17:45:23;10.90;54.00
21502;DHT22;27639;48.674;9.242;2022-11-22T17:47:49;10.90;53.90
21502;DHT22;27639;48.674;9.242;2022-11-22T17:50:15;10.90;54.00